createdAt,value
2018-07-07T00:02:00.198Z,63.30
2018-07-07T00:04:27.666Z,63.30
2018-07-07T00:06:55.253Z,63.20
2018-07-07T00:09:22.781Z,63.20
2018-07-07T00:11:50.378Z,63.20
2018-07-07T00:14:17.807Z,63.30
2018-07-07T00:16:45.339Z,63.20
2018-07-07T00:19:12.842Z,62.80
2018-07-07T00:21:40.301Z,62.70
2018-07-07T00:24:07.883Z,62.70
2018-07-07T00:26:35.471Z,62.60
2018-07-07T00:29:02.960Z,62.90
2018-07-07T00:31:30.394Z,62.50
2018-07-07T00:33:57.846Z,62.70
2018-07-07T00:36:25.325Z,62.60
2018-07-07T00:38:52.996Z,62.50
2018-07-07T00:41:20.463Z,62.20
2018-07-07T00:43:47.935Z,62.20
2018-07-07T00:46:15.366Z,62.20
2018-07-07T00:48:42.895Z,62.20
2018-07-07T00:51:10.486Z,62.10
2018-07-07T00:53:37.962Z,62.20
2018-07-07T00:56:05.647Z,61.90
2018-07-07T00:58:33.095Z,62.00
2018-07-07T01:01:00.565Z,62.00
2018-07-07T01:03:28.021Z,62.10
2018-07-07T01:05:55.490Z,62.30
2018-07-07T01:08:22.917Z,62.30
2018-07-07T01:10:50.391Z,62.40
2018-07-07T01:13:17.808Z,62.50
2018-07-07T01:15:45.235Z,62.30
2018-07-07T01:18:12.897Z,62.90
2018-07-07T01:20:40.385Z,62.20
2018-07-07T01:23:07.850Z,62.40
2018-07-07T01:25:35.353Z,62.40
2018-07-07T01:28:03.038Z,62.40
2018-07-07T01:30:30.641Z,62.50
2018-07-07T01:32:58.266Z,62.50
2018-07-07T01:35:25.801Z,63.40
2018-07-07T01:37:53.534Z,62.50
2018-07-07T01:40:21.010Z,62.60
2018-07-07T01:42:48.525Z,62.80
2018-07-07T01:45:16.077Z,62.90
2018-07-07T01:47:43.514Z,62.80
2018-07-07T01:50:11.079Z,62.70
2018-07-07T01:52:38.600Z,63.00
2018-07-07T01:55:06.066Z,62.90
2018-07-07T01:57:33.830Z,63.00
2018-07-07T02:00:01.291Z,62.80
2018-07-07T02:02:28.890Z,62.80
2018-07-07T02:04:56.374Z,62.50
2018-07-07T02:07:23.870Z,62.40
2018-07-07T02:09:51.342Z,62.00
2018-07-07T02:12:18.762Z,61.80
2018-07-07T02:14:46.189Z,61.70
2018-07-07T02:17:13.655Z,61.70
2018-07-07T02:19:41.102Z,61.00
2018-07-07T02:22:08.650Z,60.40
2018-07-07T02:24:36.155Z,60.40
2018-07-07T02:27:03.667Z,59.60
2018-07-07T02:29:31.122Z,59.70
2018-07-07T02:31:58.595Z,59.60
2018-07-07T02:34:26.073Z,59.30
2018-07-07T02:36:53.522Z,59.30
2018-07-07T02:39:20.981Z,59.00
2018-07-07T02:41:48.540Z,58.50
2018-07-07T02:44:16.027Z,57.80
2018-07-07T02:49:10.998Z,57.90
2018-07-07T02:51:38.590Z,57.60
2018-07-07T02:54:06.227Z,57.70
2018-07-07T02:56:33.667Z,57.60
2018-07-07T02:59:01.169Z,57.50
2018-07-07T03:01:28.603Z,57.80
2018-07-07T03:03:56.199Z,57.80
2018-07-07T03:06:23.721Z,57.40
2018-07-07T03:08:51.374Z,57.60
2018-07-07T03:11:18.869Z,57.90
2018-07-07T03:13:46.304Z,57.90
2018-07-07T03:16:14.084Z,57.50
2018-07-07T03:18:41.467Z,57.60
2018-07-07T03:21:09.023Z,57.50
2018-07-07T03:23:36.496Z,57.60
2018-07-07T03:26:04.128Z,57.60
2018-07-07T03:28:31.662Z,57.90
2018-07-07T03:30:59.063Z,58.10
2018-07-07T03:33:26.508Z,58.20
2018-07-07T03:35:54.035Z,58.20
2018-07-07T03:38:21.922Z,58.20
2018-07-07T03:40:49.466Z,58.40
2018-07-07T03:43:16.979Z,58.50
2018-07-07T03:45:44.466Z,58.40
2018-07-07T03:48:11.939Z,58.60
2018-07-07T03:50:39.447Z,59.00
2018-07-07T03:53:06.972Z,59.30
2018-07-07T03:55:34.505Z,59.70
2018-07-07T03:58:02.028Z,59.90
2018-07-07T04:00:29.518Z,60.10
2018-07-07T04:02:57.010Z,60.10
2018-07-07T04:05:24.645Z,60.00
2018-07-07T04:07:52.224Z,60.30
2018-07-07T04:10:19.706Z,60.90
2018-07-07T04:12:47.114Z,60.90
2018-07-07T04:15:14.611Z,60.70
2018-07-07T04:17:42.040Z,60.70
2018-07-07T04:20:09.584Z,61.00
2018-07-07T04:22:37.050Z,61.50
2018-07-07T04:25:04.559Z,61.80
2018-07-07T04:27:32.059Z,62.20
2018-07-07T04:29:59.506Z,62.40
2018-07-07T04:32:27.079Z,62.50
2018-07-07T04:34:54.596Z,62.90
2018-07-07T04:37:22.159Z,62.70
2018-07-07T04:39:49.566Z,62.70
2018-07-07T04:42:17.062Z,62.50
2018-07-07T04:44:44.692Z,62.30
2018-07-07T04:47:12.199Z,62.10
2018-07-07T04:49:39.761Z,61.90
2018-07-07T04:52:07.311Z,61.70
2018-07-07T04:54:34.803Z,61.80
2018-07-07T04:57:02.318Z,61.80
2018-07-07T04:59:29.805Z,61.70
2018-07-07T05:01:57.356Z,61.70
2018-07-07T05:04:24.918Z,61.80
2018-07-07T05:06:52.480Z,61.90
2018-07-07T05:09:19.958Z,62.10
2018-07-07T05:11:47.446Z,62.20
2018-07-07T05:14:15.003Z,62.20
2018-07-07T05:16:42.510Z,62.20
2018-07-07T05:19:10.016Z,62.00
2018-07-07T05:21:37.586Z,61.90
2018-07-07T05:26:32.551Z,61.00
2018-07-07T05:29:00.008Z,60.90
2018-07-07T05:31:27.465Z,60.90
2018-07-07T05:33:54.980Z,60.90
2018-07-07T05:36:22.512Z,60.60
2018-07-07T05:38:50.011Z,60.00
2018-07-07T05:41:17.605Z,60.00
2018-07-07T05:43:45.114Z,59.80
2018-07-07T05:46:12.682Z,59.60
2018-07-07T05:48:40.258Z,59.30
2018-07-07T05:51:07.808Z,59.10
2018-07-07T05:53:35.313Z,59.40
2018-07-07T05:56:02.966Z,58.60
2018-07-07T05:58:30.557Z,58.60
2018-07-07T06:00:58.319Z,58.70
2018-07-07T06:03:25.763Z,58.60
2018-07-07T06:05:53.168Z,58.60
2018-07-07T06:08:20.739Z,58.50
2018-07-07T06:10:48.278Z,58.40
2018-07-07T06:13:15.745Z,58.30
2018-07-07T06:15:43.333Z,58.20
2018-07-07T06:18:10.880Z,58.40
2018-07-07T06:20:38.410Z,58.40
2018-07-07T06:23:05.990Z,58.50
2018-07-07T06:25:33.567Z,58.50
2018-07-07T06:28:01.081Z,58.90
2018-07-07T06:30:28.567Z,58.30
2018-07-07T06:32:56.146Z,58.20
2018-07-07T06:35:23.606Z,58.10
2018-07-07T06:37:51.257Z,58.20
2018-07-07T06:40:18.682Z,58.40
2018-07-07T06:42:46.178Z,57.80
2018-07-07T06:45:13.592Z,57.80
2018-07-07T06:47:41.441Z,58.10
2018-07-07T06:50:08.932Z,58.10
2018-07-07T06:52:36.509Z,58.00
2018-07-07T06:55:04.268Z,58.00
2018-07-07T06:57:31.722Z,57.90
2018-07-07T06:59:59.231Z,57.50
2018-07-07T07:02:26.654Z,57.30
2018-07-07T07:04:54.094Z,57.40
2018-07-07T07:07:21.575Z,56.80
2018-07-07T07:12:16.376Z,57.10
2018-07-07T07:14:43.856Z,57.20
2018-07-07T07:17:11.327Z,56.80
2018-07-07T07:19:38.952Z,56.70
2018-07-07T07:22:06.470Z,56.00
2018-07-07T07:24:34.003Z,55.40
2018-07-07T07:27:01.459Z,55.60
2018-07-07T07:29:28.909Z,55.00
2018-07-07T07:31:56.321Z,55.20
2018-07-07T07:34:23.852Z,55.20
2018-07-07T07:36:51.327Z,55.70
2018-07-07T07:39:18.769Z,55.40
2018-07-07T07:41:46.321Z,55.40
2018-07-07T07:44:13.802Z,55.80
2018-07-07T07:46:41.685Z,55.70
2018-07-07T07:49:09.603Z,55.50
2018-07-07T07:51:37.059Z,56.00
2018-07-07T07:54:04.828Z,55.30
2018-07-07T07:56:32.281Z,55.10
2018-07-07T07:58:59.825Z,54.90
2018-07-07T08:01:27.274Z,55.00
2018-07-07T08:03:55.432Z,55.40
2018-07-07T08:06:22.973Z,55.40
2018-07-07T08:08:50.413Z,55.10
2018-07-07T08:11:17.868Z,55.10
2018-07-07T08:13:45.406Z,55.10
2018-07-07T08:16:13.061Z,55.30
2018-07-07T08:18:40.549Z,55.10
2018-07-07T08:21:08.026Z,55.00
2018-07-07T08:23:35.523Z,55.20
2018-07-07T08:26:03.339Z,55.20
2018-07-07T08:28:31.010Z,55.10
2018-07-07T08:30:58.416Z,55.00
2018-07-07T08:33:25.861Z,54.50
2018-07-07T08:35:53.992Z,55.60
2018-07-07T08:38:21.511Z,55.10
2018-07-07T08:40:49.053Z,54.90
2018-07-07T08:43:17.920Z,55.00
2018-07-07T08:45:45.776Z,55.10
2018-07-07T08:48:13.880Z,55.10
2018-07-07T08:50:42.050Z,55.50
2018-07-07T08:53:09.537Z,54.80
2018-07-07T08:55:37.429Z,54.00
2018-07-07T08:58:05.718Z,54.50
2018-07-07T09:00:33.182Z,55.10
2018-07-07T09:03:01.094Z,55.00
2018-07-07T09:05:28.640Z,55.30
2018-07-07T09:07:56.098Z,55.30
2018-07-07T09:10:23.661Z,55.50
2018-07-07T09:12:51.446Z,56.00
2018-07-07T09:15:18.843Z,56.50
2018-07-07T09:17:46.596Z,56.40
2018-07-07T09:20:14.073Z,56.20
2018-07-07T09:22:41.922Z,56.20
2018-07-07T09:25:09.442Z,56.10
2018-07-07T09:27:37.082Z,55.50
2018-07-07T09:30:05.243Z,55.70
2018-07-07T09:32:33.545Z,55.50
2018-07-07T09:35:01.114Z,55.50
2018-07-07T09:43:12.682Z,55.60
2018-07-07T09:45:40.401Z,55.80
2018-07-07T09:48:08.341Z,56.30
2018-07-07T09:50:36.958Z,55.70
2018-07-07T09:53:04.895Z,55.50
2018-07-07T09:55:32.450Z,56.00
2018-07-07T09:57:59.971Z,55.60
2018-07-07T10:00:33.323Z,55.80
2018-07-07T10:03:01.301Z,56.20
2018-07-07T10:05:28.737Z,56.10
2018-07-07T10:07:56.307Z,56.40
2018-07-07T10:10:24.137Z,56.60
2018-07-07T10:12:51.660Z,56.70
2018-07-07T10:15:19.528Z,55.80
2018-07-07T10:17:47.046Z,54.60
2018-07-07T10:20:15.059Z,54.80
2018-07-07T10:22:42.951Z,55.50
2018-07-07T10:25:10.456Z,56.20
2018-07-07T10:27:38.308Z,55.50
2018-07-07T10:30:06.460Z,55.40
2018-07-07T10:32:35.067Z,55.50
2018-07-07T10:35:02.683Z,55.40
2018-07-07T10:37:30.252Z,54.70
2018-07-07T10:42:25.973Z,54.60
2018-07-07T10:44:53.418Z,54.20
2018-07-07T10:49:48.592Z,54.90
2018-07-07T10:52:16.189Z,54.80
2018-07-07T10:54:44.223Z,54.50
2018-07-07T10:57:11.837Z,54.50
2018-07-07T10:59:39.763Z,55.00
2018-07-07T11:07:02.555Z,54.70
2018-07-07T11:09:30.054Z,54.80
2018-07-07T11:11:57.825Z,55.20
2018-07-07T11:14:25.693Z,55.40
2018-07-07T11:19:21.062Z,55.60
2018-07-07T11:21:48.596Z,55.50
2018-07-07T11:24:16.767Z,55.60
2018-07-07T11:26:44.977Z,55.50
2018-07-07T11:29:12.581Z,56.20
2018-07-07T11:31:41.229Z,56.60
2018-07-07T11:34:09.312Z,56.40
2018-07-07T11:36:36.934Z,56.40
2018-07-07T11:39:05.837Z,56.40
2018-07-07T11:44:01.141Z,56.30
2018-07-07T11:46:29.089Z,56.40
2018-07-07T11:48:56.864Z,56.80
2018-07-07T11:51:24.525Z,56.70
2018-07-07T11:53:52.366Z,56.70
2018-07-07T11:56:20.160Z,57.00
2018-07-07T11:58:47.696Z,57.70
2018-07-07T12:01:15.137Z,57.60
2018-07-07T12:03:42.826Z,57.40
2018-07-07T12:06:10.349Z,57.10
2018-07-07T12:08:38.051Z,57.30
2018-07-07T12:11:06.053Z,57.20
2018-07-07T12:13:34.025Z,57.30
2018-07-07T12:16:01.571Z,57.50
2018-07-07T12:18:29.118Z,57.50
2018-07-07T12:20:56.986Z,57.30
2018-07-07T12:23:24.807Z,56.70
2018-07-07T12:25:52.715Z,56.40
2018-07-07T12:28:20.344Z,56.20
2018-07-07T12:30:47.946Z,56.20
2018-07-07T12:33:15.649Z,56.20
2018-07-07T12:35:43.139Z,55.90
2018-07-07T12:38:11.616Z,56.00
2018-07-07T12:40:39.160Z,56.30
2018-07-07T12:43:07.027Z,56.60
2018-07-07T12:45:34.575Z,56.60
2018-07-07T12:48:02.625Z,56.70
2018-07-07T12:50:30.181Z,56.10
2018-07-07T12:52:57.819Z,56.40
2018-07-07T12:55:25.684Z,55.90
2018-07-07T12:57:53.143Z,55.60
2018-07-07T13:00:20.757Z,56.00
2018-07-07T13:02:48.584Z,56.00
2018-07-07T13:05:16.174Z,55.90
2018-07-07T13:07:43.966Z,55.70
2018-07-07T13:10:11.670Z,55.70
2018-07-07T13:12:39.225Z,56.20
2018-07-07T13:15:07.170Z,56.50
2018-07-07T13:17:34.753Z,55.70
2018-07-07T13:20:02.256Z,55.50
2018-07-07T13:22:29.856Z,55.90
2018-07-07T13:24:57.434Z,55.60
2018-07-07T13:29:52.810Z,55.90
2018-07-07T13:32:20.330Z,55.50
2018-07-07T13:34:47.756Z,55.60
2018-07-07T13:37:15.338Z,55.50
2018-07-07T13:39:43.065Z,55.50
2018-07-07T13:42:11.852Z,55.50
2018-07-07T13:44:40.552Z,55.70
2018-07-07T13:47:08.653Z,56.00
2018-07-07T13:49:36.822Z,55.40
2018-07-07T13:52:04.578Z,55.50
2018-07-07T13:54:32.158Z,55.80
2018-07-07T13:56:59.746Z,55.60
2018-07-07T13:59:27.308Z,55.40
2018-07-07T14:01:54.854Z,55.30
2018-07-07T14:04:22.580Z,54.80
2018-07-07T14:06:50.110Z,55.10
2018-07-07T14:09:17.728Z,55.30
2018-07-07T14:11:45.236Z,55.70
2018-07-07T14:14:13.027Z,55.30
2018-07-07T14:16:40.651Z,55.00
2018-07-07T14:19:08.231Z,55.00
2018-07-07T14:21:35.730Z,54.60
2018-07-07T14:24:03.315Z,54.60
2018-07-07T14:26:30.936Z,54.80
2018-07-07T14:28:58.541Z,55.00
2018-07-07T14:31:26.002Z,55.00
2018-07-07T14:33:53.542Z,55.30
2018-07-07T14:36:21.107Z,55.20
2018-07-07T14:38:48.649Z,54.90
2018-07-07T14:41:20.748Z,54.90
2018-07-07T14:44:08.169Z,55.00
2018-07-07T14:46:35.834Z,54.50
2018-07-07T14:49:03.390Z,54.90
2018-07-07T14:51:30.837Z,54.90
2018-07-07T14:53:58.494Z,54.60
2018-07-07T14:56:26.793Z,54.30
2018-07-07T14:58:54.383Z,54.30
2018-07-07T15:01:22.027Z,54.40
2018-07-07T15:03:49.576Z,54.40
2018-07-07T15:06:17.065Z,54.40
2018-07-07T15:08:44.589Z,53.80
2018-07-07T15:11:12.383Z,53.90
2018-07-07T15:13:39.914Z,53.10
2018-07-07T15:16:07.590Z,52.80
2018-07-07T15:18:35.707Z,53.10
2018-07-07T15:21:03.617Z,52.90
2018-07-07T15:23:31.243Z,52.40
2018-07-07T15:25:58.965Z,52.50
2018-07-07T15:28:26.473Z,52.60
2018-07-07T15:30:53.975Z,52.40
2018-07-07T15:33:21.427Z,52.10
2018-07-07T15:35:48.909Z,52.20
2018-07-07T15:38:16.454Z,52.40
2018-07-07T15:40:44.017Z,52.30
2018-07-07T15:43:11.599Z,51.80
2018-07-07T15:45:39.286Z,51.30
2018-07-07T15:48:06.865Z,50.70
2018-07-07T15:50:34.441Z,50.50
2018-07-07T15:53:01.883Z,49.80
2018-07-07T15:55:29.375Z,49.80
2018-07-07T15:57:56.860Z,49.20
2018-07-07T16:00:24.346Z,49.20
2018-07-07T16:02:52.185Z,49.50
2018-07-07T16:05:19.774Z,49.10
2018-07-07T16:07:47.214Z,48.60
2018-07-07T16:10:14.719Z,48.60
2018-07-07T16:12:42.214Z,48.40
2018-07-07T16:15:09.774Z,48.20
2018-07-07T16:17:37.194Z,47.90
2018-07-07T16:20:04.803Z,48.00
2018-07-07T16:22:32.319Z,48.30
2018-07-07T16:24:59.993Z,48.50
2018-07-07T16:27:27.497Z,48.50
2018-07-07T16:29:54.999Z,48.70
2018-07-07T16:32:22.506Z,48.90
2018-07-07T16:34:50.039Z,48.30
2018-07-07T16:37:17.793Z,47.40
2018-07-07T16:39:45.423Z,47.30
2018-07-07T16:42:13.026Z,47.30
2018-07-07T16:44:40.806Z,47.40
2018-07-07T16:47:08.298Z,47.40
2018-07-07T16:49:37.080Z,47.20
2018-07-07T16:52:04.867Z,47.30
2018-07-07T16:54:32.514Z,47.30
2018-07-07T16:57:00.311Z,47.50
2018-07-07T16:59:28.811Z,46.90
2018-07-07T17:01:56.811Z,47.00
2018-07-07T17:04:24.405Z,46.90
2018-07-07T17:06:51.978Z,47.10
2018-07-07T17:09:19.573Z,47.40
2018-07-07T17:11:47.948Z,47.70
2018-07-07T17:14:15.485Z,47.80
2018-07-07T17:16:44.319Z,48.00
2018-07-07T17:19:13.529Z,48.20
2018-07-07T17:21:41.730Z,48.80
2018-07-07T17:24:09.559Z,48.90
2018-07-07T17:26:37.075Z,49.10
2018-07-07T17:29:05.062Z,49.60
2018-07-07T17:31:33.429Z,49.40
2018-07-07T17:34:00.975Z,50.30
2018-07-07T17:36:28.613Z,50.30
2018-07-07T17:38:57.107Z,50.70
2018-07-07T17:41:25.108Z,50.80
2018-07-07T17:43:52.683Z,51.00
2018-07-07T17:46:20.697Z,51.50
2018-07-07T17:51:15.893Z,52.10
2018-07-07T17:53:43.594Z,52.10
2018-07-07T17:58:38.818Z,52.70
2018-07-07T18:01:06.358Z,53.60
2018-07-07T18:03:34.286Z,52.50
2018-07-07T18:06:01.742Z,52.60
2018-07-07T18:08:29.684Z,52.50
2018-07-07T18:10:57.394Z,52.80
2018-07-07T18:13:24.927Z,53.40
2018-07-07T18:15:52.699Z,53.10
2018-07-07T18:18:20.267Z,53.10
2018-07-07T18:20:48.051Z,53.20
2018-07-07T18:23:15.578Z,52.90
2018-07-07T18:25:43.253Z,53.00
2018-07-07T18:35:34.100Z,52.90
2018-07-07T18:38:01.927Z,53.20
2018-07-07T18:40:29.427Z,53.40
2018-07-07T18:42:57.171Z,52.50
2018-07-07T18:45:24.701Z,52.40
2018-07-07T18:47:52.315Z,52.50
2018-07-07T18:50:19.964Z,52.60
2018-07-07T18:52:47.466Z,52.60
2018-07-07T18:55:15.144Z,52.50
2018-07-07T18:57:42.755Z,52.40
2018-07-07T19:00:10.293Z,52.80
2018-07-07T19:02:38.314Z,52.80
2018-07-07T19:05:05.823Z,52.50
2018-07-07T19:07:33.497Z,52.70
2018-07-07T19:10:01.079Z,52.80
2018-07-07T19:12:28.806Z,52.80
2018-07-07T19:15:02.315Z,52.70
2018-07-07T19:17:30.134Z,52.50
2018-07-07T19:19:57.654Z,52.80
2018-07-07T19:22:30.993Z,52.70
2018-07-07T19:25:04.320Z,52.80
2018-07-07T19:27:31.907Z,52.90
2018-07-07T19:30:00.206Z,52.90
2018-07-07T19:32:33.516Z,52.90
2018-07-07T19:35:06.832Z,52.80
2018-07-07T19:37:34.546Z,53.00
2018-07-07T19:42:29.643Z,53.10
2018-07-07T19:44:57.358Z,53.00
2018-07-07T19:47:25.204Z,53.40
2018-07-07T19:49:52.969Z,53.50
2018-07-07T19:52:20.509Z,53.50
2018-07-07T19:54:48.210Z,53.60
2018-07-07T19:57:15.806Z,53.70
2018-07-07T19:59:43.501Z,53.60
2018-07-07T20:02:11.040Z,53.60
2018-07-07T20:04:38.513Z,53.70
2018-07-07T20:07:06.043Z,53.70
2018-07-07T20:09:33.626Z,53.70
2018-07-07T20:12:01.312Z,54.50
2018-07-07T20:14:29.227Z,54.00
2018-07-07T20:17:04.325Z,54.20
2018-07-07T20:19:47.916Z,54.40
2018-07-07T20:22:15.896Z,54.50
2018-07-07T20:24:43.729Z,54.60
2018-07-07T20:27:17.162Z,54.60
2018-07-07T20:29:44.589Z,54.80
2018-07-07T20:32:17.861Z,54.60
2018-07-07T20:34:45.433Z,54.80
2018-07-07T20:37:13.239Z,54.80
2018-07-07T20:39:40.845Z,54.90
2018-07-07T20:42:08.415Z,55.00
2018-07-07T20:44:35.986Z,55.00
2018-07-07T20:47:03.838Z,55.20
2018-07-07T20:49:31.584Z,55.30
2018-07-07T20:51:59.081Z,55.30
2018-07-07T20:54:27.183Z,55.50
2018-07-07T20:56:54.768Z,55.50
2018-07-07T20:59:22.482Z,55.60
2018-07-07T21:04:17.768Z,55.70
2018-07-07T21:06:45.222Z,55.80
2018-07-07T21:09:12.797Z,55.80
2018-07-07T21:11:40.505Z,55.80
2018-07-07T21:14:08.071Z,55.80
2018-07-07T21:16:35.677Z,55.90
2018-07-07T21:19:03.400Z,55.90
2018-07-07T21:21:31.122Z,55.90
2018-07-07T21:23:58.639Z,55.90
2018-07-07T21:26:26.152Z,55.70
2018-07-07T21:28:53.931Z,55.80
2018-07-07T21:31:21.504Z,55.70
2018-07-07T21:33:48.971Z,55.60
2018-07-07T21:36:16.461Z,55.60
2018-07-07T21:38:44.131Z,55.80
2018-07-07T21:41:11.737Z,55.70
2018-07-07T21:43:39.299Z,55.70
2018-07-07T21:46:06.810Z,55.80
2018-07-07T21:48:34.390Z,55.80
2018-07-07T21:51:02.162Z,55.80
2018-07-07T21:53:29.775Z,56.00
2018-07-07T21:55:57.323Z,55.50
2018-07-07T22:01:11.486Z,56.40
2018-07-07T22:03:45.487Z,56.50
2018-07-07T22:06:17.607Z,56.60
2018-07-07T22:08:45.168Z,56.70
2018-07-07T22:11:12.748Z,56.80
2018-07-07T22:13:40.277Z,57.00
2018-07-07T22:16:07.809Z,57.10
2018-07-07T22:18:35.686Z,57.30
2018-07-07T22:21:14.675Z,57.20
2018-07-07T22:23:42.196Z,57.40
2018-07-07T22:26:09.879Z,57.30
2018-07-07T22:28:37.465Z,57.40
2018-07-07T22:31:05.071Z,57.40
2018-07-07T22:33:32.611Z,58.10
2018-07-07T22:36:05.869Z,57.60
2018-07-07T22:39:05.888Z,57.80
2018-07-07T22:41:44.977Z,58.00
2018-07-07T22:44:12.483Z,58.10
2018-07-07T22:46:39.965Z,58.20
2018-07-07T22:49:07.531Z,58.40
2018-07-07T22:51:35.080Z,58.30
2018-07-07T22:54:03.145Z,59.00
2018-07-07T22:56:30.932Z,58.80
2018-07-07T22:58:58.410Z,58.90
2018-07-07T23:01:25.961Z,59.00
2018-07-07T23:03:53.471Z,59.10
2018-07-07T23:06:21.037Z,59.10
2018-07-07T23:08:48.555Z,59.10
2018-07-07T23:11:16.176Z,59.30
2018-07-07T23:13:43.730Z,59.40
2018-07-07T23:16:11.329Z,59.70
2018-07-07T23:18:38.901Z,59.70
2018-07-07T23:23:33.963Z,59.70
2018-07-07T23:26:01.504Z,60.00
2018-07-07T23:28:29.035Z,60.00
2018-07-07T23:30:56.556Z,60.00
2018-07-07T23:33:24.013Z,60.10
2018-07-07T23:35:51.558Z,60.30
2018-07-07T23:38:19.119Z,60.30
2018-07-07T23:40:46.618Z,60.30
2018-07-07T23:43:20.214Z,60.50
2018-07-07T23:45:47.749Z,60.50
2018-07-07T23:48:15.235Z,60.80
2018-07-07T23:50:42.967Z,60.80
2018-07-07T23:53:10.713Z,60.80
2018-07-07T23:55:38.529Z,60.90
2018-07-07T23:58:06.090Z,61.10
